createdAt,value
2019-05-11T00:00:22.558Z,43.71
2019-05-11T00:02:44.494Z,43.68
2019-05-11T00:05:06.732Z,43.67
2019-05-11T00:07:28.168Z,43.65
2019-05-11T00:09:58.276Z,43.64
2019-05-11T00:12:12.692Z,43.60
2019-05-11T00:14:34.667Z,43.60
2019-05-11T00:16:55.645Z,43.58
2019-05-11T00:19:17.619Z,43.59
2019-05-11T00:21:39.565Z,43.59
2019-05-11T00:24:01.826Z,43.58
2019-05-11T00:26:24.186Z,43.59
2019-05-11T00:28:45.633Z,43.58
2019-05-11T00:31:07.845Z,43.57
2019-05-11T00:33:29.142Z,43.58
2019-05-11T00:35:50.933Z,43.59
2019-05-11T00:38:12.351Z,43.57
2019-05-11T00:40:34.053Z,43.57
2019-05-11T00:42:55.767Z,43.58
2019-05-11T00:45:17.437Z,43.55
2019-05-11T00:47:39.282Z,43.59
2019-05-11T00:50:00.779Z,43.61
2019-05-11T00:52:22.620Z,43.67
2019-05-11T00:54:44.267Z,43.66
2019-05-11T00:57:06.504Z,43.68
2019-05-11T00:59:28.356Z,43.71
2019-05-11T01:01:50.167Z,43.71
2019-05-11T01:04:12.184Z,43.71
2019-05-11T01:06:34.591Z,43.75
2019-05-11T01:08:56.074Z,43.78
2019-05-11T01:11:18.230Z,43.77
2019-05-11T01:13:39.992Z,43.78
2019-05-11T01:16:01.739Z,43.79
2019-05-11T01:18:23.040Z,43.81
2019-05-11T01:20:44.372Z,43.82
2019-05-11T01:23:06.267Z,43.82
2019-05-11T01:25:28.228Z,43.82
2019-05-11T01:27:50.053Z,43.82
2019-05-11T01:30:11.521Z,43.81
2019-05-11T01:32:32.896Z,43.80
2019-05-11T01:34:54.822Z,43.80
2019-05-11T01:37:17.178Z,43.78
2019-05-11T01:39:39.485Z,43.72
2019-05-11T01:42:01.409Z,43.70
2019-05-11T01:44:23.341Z,43.65
2019-05-11T01:46:45.060Z,43.59
2019-05-11T01:49:07.261Z,43.58
2019-05-11T01:51:29.783Z,43.56
2019-05-11T01:53:51.239Z,43.54
2019-05-11T01:56:12.816Z,43.50
2019-05-11T01:58:34.342Z,43.48
2019-05-11T02:00:55.662Z,43.46
2019-05-11T02:03:17.477Z,43.45
2019-05-11T02:05:39.607Z,43.45
2019-05-11T02:08:01.999Z,43.42
2019-05-11T02:10:23.256Z,43.42
2019-05-11T02:12:45.136Z,43.41
2019-05-11T02:15:07.180Z,43.42
2019-05-11T02:17:28.700Z,43.43
2019-05-11T02:19:50.183Z,43.42
2019-05-11T02:22:11.657Z,43.45
2019-05-11T02:24:33.663Z,43.42
2019-05-11T02:26:55.325Z,43.45
2019-05-11T02:29:17.678Z,43.43
2019-05-11T02:31:38.846Z,43.46
2019-05-11T02:34:00.541Z,43.46
2019-05-11T02:36:21.973Z,43.45
2019-05-11T02:38:43.912Z,43.47
2019-05-11T02:41:05.977Z,43.49
2019-05-11T02:43:27.426Z,43.50
2019-05-11T02:45:48.938Z,43.50
2019-05-11T02:48:11.037Z,43.51
2019-05-11T02:50:32.020Z,43.50
2019-05-11T02:52:53.528Z,43.52
2019-05-11T02:55:15.243Z,43.53
2019-05-11T02:57:36.903Z,43.55
2019-05-11T02:59:58.238Z,43.56
2019-05-11T03:02:19.646Z,43.57
2019-05-11T03:04:41.595Z,43.57
2019-05-11T03:07:03.320Z,43.57
2019-05-11T03:09:24.873Z,43.60
2019-05-11T03:11:55.493Z,43.59
2019-05-11T03:14:09.771Z,43.61
2019-05-11T03:16:31.928Z,43.60
2019-05-11T03:18:53.693Z,43.61
2019-05-11T03:21:15.573Z,43.65
2019-05-11T03:23:38.087Z,43.66
2019-05-11T03:26:00.021Z,43.66
2019-05-11T03:28:21.325Z,43.65
2019-05-11T03:30:43.567Z,43.68
2019-05-11T03:33:04.882Z,43.68
2019-05-11T03:35:27.000Z,43.63
2019-05-11T03:37:48.837Z,43.63
2019-05-11T03:40:10.774Z,43.58
2019-05-11T03:42:32.925Z,43.53
2019-05-11T03:44:54.563Z,43.47
2019-05-11T03:47:16.634Z,43.42
2019-05-11T03:49:38.208Z,43.40
2019-05-11T03:52:00.081Z,43.37
2019-05-11T03:54:22.018Z,43.35
2019-05-11T03:56:43.772Z,43.29
2019-05-11T03:59:05.649Z,43.27
2019-05-11T04:01:27.218Z,43.26
2019-05-11T04:03:49.008Z,43.22
2019-05-11T04:06:10.983Z,43.23
2019-05-11T04:08:32.657Z,43.20
2019-05-11T04:10:54.855Z,43.17
2019-05-11T04:13:16.889Z,43.17
2019-05-11T04:15:38.790Z,43.17
2019-05-11T04:18:00.824Z,43.18
2019-05-11T04:20:22.582Z,43.19
2019-05-11T04:22:44.423Z,43.18
2019-05-11T04:25:06.133Z,43.20
2019-05-11T04:27:28.021Z,43.18
2019-05-11T04:29:49.607Z,43.19
2019-05-11T04:32:11.196Z,43.19
2019-05-11T04:34:33.525Z,43.18
2019-05-11T04:36:55.412Z,43.18
2019-05-11T04:39:16.833Z,43.18
2019-05-11T04:41:38.992Z,43.17
2019-05-11T04:44:01.265Z,43.18
2019-05-11T04:46:22.915Z,43.19
2019-05-11T04:48:44.371Z,43.20
2019-05-11T04:51:06.087Z,43.20
2019-05-11T04:53:27.821Z,43.20
2019-05-11T04:55:49.795Z,43.21
2019-05-11T04:58:11.430Z,43.22
2019-05-11T05:00:33.537Z,43.22
2019-05-11T05:02:55.470Z,43.23
2019-05-11T05:05:17.372Z,43.23
2019-05-11T05:07:48.076Z,43.26
2019-05-11T05:10:01.874Z,43.26
2019-05-11T05:12:23.818Z,43.27
2019-05-11T05:14:44.965Z,43.28
2019-05-11T05:17:07.178Z,43.27
2019-05-11T05:19:28.501Z,43.29
2019-05-11T05:21:50.604Z,43.29
2019-05-11T05:24:12.206Z,43.30
2019-05-11T05:26:33.966Z,43.30
2019-05-11T05:28:55.144Z,43.28
2019-05-11T05:31:17.306Z,43.29
2019-05-11T05:33:38.669Z,43.27
2019-05-11T05:36:00.614Z,43.28
2019-05-11T05:38:22.292Z,43.29
2019-05-11T05:40:43.772Z,43.22
2019-05-11T05:43:05.535Z,43.28
2019-05-11T05:45:27.799Z,43.28
2019-05-11T05:47:49.209Z,43.27
2019-05-11T05:50:10.888Z,43.25
2019-05-11T05:52:32.552Z,43.23
2019-05-11T05:54:54.844Z,43.16
2019-05-11T05:57:16.633Z,43.12
2019-05-11T05:59:38.480Z,43.05
2019-05-11T06:02:00.118Z,43.02
2019-05-11T06:04:22.045Z,42.98
2019-05-11T06:06:44.846Z,42.95
2019-05-11T06:09:06.250Z,42.91
2019-05-11T06:11:27.602Z,42.88
2019-05-11T06:13:49.488Z,42.86
2019-05-11T06:16:11.441Z,42.82
2019-05-11T06:18:33.531Z,42.80
2019-05-11T06:20:55.423Z,42.82
2019-05-11T06:23:17.189Z,42.80
2019-05-11T06:25:39.188Z,42.77
2019-05-11T06:28:00.706Z,42.77
2019-05-11T06:30:22.070Z,43.02
2019-05-11T06:32:43.581Z,42.99
2019-05-11T06:35:05.635Z,43.00
2019-05-11T06:37:27.287Z,43.04
2019-05-11T06:39:48.951Z,43.09
2019-05-11T06:42:10.552Z,43.09
2019-05-11T06:44:32.356Z,43.13
2019-05-11T06:46:53.936Z,43.21
2019-05-11T06:49:15.344Z,43.21
2019-05-11T06:51:40.349Z,43.17
2019-05-11T06:54:00.837Z,43.24
2019-05-11T06:56:22.772Z,43.33
2019-05-11T06:58:45.615Z,43.43
2019-05-11T07:01:07.683Z,43.46
2019-05-11T07:03:29.403Z,43.58
2019-05-11T07:05:51.036Z,43.73
2019-05-11T07:08:13.386Z,43.82
2019-05-11T07:10:35.516Z,43.84
2019-05-11T07:12:57.966Z,43.95
2019-05-11T07:15:20.292Z,43.96
2019-05-11T07:17:41.582Z,44.02
2019-05-11T07:20:07.722Z,44.22
2019-05-11T07:22:29.863Z,43.85
2019-05-11T07:24:51.636Z,40.91
2019-05-11T07:27:13.540Z,42.28
2019-05-11T07:29:35.462Z,42.78
2019-05-11T07:32:03.139Z,43.05
2019-05-11T07:34:21.140Z,43.08
2019-05-11T07:36:43.083Z,43.07
2019-05-11T07:41:32.189Z,43.00
2019-05-11T07:43:54.126Z,42.97
2019-05-11T07:46:28.949Z,42.90
2019-05-11T07:48:51.143Z,42.85
2019-05-11T07:51:12.480Z,42.84
2019-05-11T07:53:33.971Z,42.79
2019-05-11T07:55:57.753Z,42.71
2019-05-11T08:00:18.594Z,42.72
2019-05-11T08:02:40.638Z,42.68
2019-05-11T08:05:02.369Z,42.53
2019-05-11T08:07:25.140Z,42.58
2019-05-11T08:09:48.267Z,42.49
2019-05-11T08:12:10.720Z,42.55
2019-05-11T08:14:32.558Z,42.39
2019-05-11T08:16:54.545Z,42.44
2019-05-11T08:19:18.527Z,42.44
2019-05-11T08:21:39.445Z,42.53
2019-05-11T08:24:00.928Z,42.55
2019-05-11T08:26:22.819Z,42.51
2019-05-11T08:28:44.507Z,42.57
2019-05-11T08:31:08.040Z,42.61
2019-05-11T08:33:30.008Z,42.74
2019-05-11T08:35:51.939Z,42.58
2019-05-11T08:38:13.776Z,42.58
2019-05-11T08:40:37.913Z,42.60
2019-05-11T08:42:58.842Z,42.63
2019-05-11T08:45:24.780Z,42.68
2019-05-11T08:47:44.435Z,42.67
2019-05-11T08:50:08.054Z,42.63
2019-05-11T08:52:30.282Z,42.71
2019-05-11T08:54:52.332Z,42.57
2019-05-11T08:57:14.030Z,42.71
2019-05-11T08:59:37.936Z,42.69
2019-05-11T09:01:59.046Z,42.71
2019-05-11T09:04:20.671Z,42.88
2019-05-11T09:06:42.108Z,42.88
2019-05-11T09:09:04.142Z,43.02
2019-05-11T09:11:28.200Z,42.69
2019-05-11T09:13:50.188Z,42.22
2019-05-11T09:16:11.767Z,42.87
2019-05-11T09:18:33.566Z,42.97
2019-05-11T09:20:57.731Z,43.08
2019-05-11T09:23:33.680Z,43.04
2019-05-11T09:25:42.255Z,43.10
2019-05-11T09:28:04.293Z,43.14
2019-05-11T09:30:28.637Z,43.12
2019-05-11T09:32:49.493Z,43.05
2019-05-11T09:35:11.488Z,43.05
2019-05-11T09:37:33.632Z,43.04
2019-05-11T09:39:58.180Z,43.07
2019-05-11T09:42:19.222Z,43.17
2019-05-11T09:44:41.013Z,43.34
2019-05-11T09:47:02.982Z,43.32
2019-05-11T09:49:24.388Z,43.30
2019-05-11T09:51:48.253Z,43.25
2019-05-11T09:54:09.579Z,43.16
2019-05-11T09:56:31.649Z,43.18
2019-05-11T09:58:53.031Z,43.23
2019-05-11T10:01:14.761Z,42.59
2019-05-11T10:03:38.670Z,42.06
2019-05-11T10:06:00.515Z,42.22
2019-05-11T10:08:21.997Z,41.48
2019-05-11T10:10:43.693Z,41.91
2019-05-11T10:13:05.382Z,42.24
2019-05-11T10:15:28.750Z,42.21
2019-05-11T10:17:50.728Z,41.32
2019-05-11T10:20:11.859Z,41.32
2019-05-11T10:22:34.027Z,42.04
2019-05-11T10:24:58.060Z,42.13
2019-05-11T10:27:19.210Z,42.00
2019-05-11T10:29:40.932Z,42.03
2019-05-11T10:32:02.698Z,42.20
2019-05-11T10:34:24.482Z,42.00
2019-05-11T10:36:48.615Z,41.99
2019-05-11T10:39:10.150Z,41.96
2019-05-11T10:41:32.116Z,41.80
2019-05-11T10:43:53.856Z,41.70
2019-05-11T10:46:22.967Z,41.76
2019-05-11T10:48:39.843Z,41.84
2019-05-11T10:51:01.737Z,41.75
2019-05-11T10:53:23.049Z,41.76
2019-05-11T10:55:44.807Z,41.77
2019-05-11T10:58:08.635Z,41.68
2019-05-11T11:00:31.106Z,41.87
2019-05-11T11:02:53.767Z,41.58
2019-05-11T11:05:15.078Z,41.65
2019-05-11T11:07:38.422Z,41.91
2019-05-11T11:10:01.245Z,42.21
2019-05-11T11:12:27.764Z,41.74
2019-05-11T11:14:48.793Z,41.92
2019-05-11T11:17:11.105Z,41.42
2019-05-11T11:19:33.025Z,40.74
2019-05-11T11:21:54.634Z,40.67
2019-05-11T11:24:17.919Z,41.00
2019-05-11T11:26:39.601Z,41.10
2019-05-11T11:29:01.627Z,40.74
2019-05-11T11:31:23.668Z,40.93
2019-05-11T11:33:45.229Z,41.79
2019-05-11T11:36:08.510Z,42.30
2019-05-11T11:38:30.215Z,42.75
2019-05-11T11:41:04.635Z,42.67
2019-05-11T11:43:28.714Z,42.80
2019-05-11T11:45:49.923Z,42.77
2019-05-11T11:48:11.450Z,42.69
2019-05-11T11:50:33.026Z,42.48
2019-05-11T11:52:57.687Z,42.53
2019-05-11T11:55:18.686Z,42.37
2019-05-11T11:57:48.439Z,42.49
2019-05-11T12:00:09.398Z,42.51
2019-05-11T12:02:30.901Z,41.34
2019-05-11T12:04:53.816Z,41.88
2019-05-11T12:07:17.960Z,42.42
2019-05-11T12:09:38.792Z,42.87
2019-05-11T12:12:00.946Z,43.15
2019-05-11T12:14:21.897Z,42.33
2019-05-11T12:16:44.196Z,42.28
2019-05-11T12:19:05.724Z,43.61
2019-05-11T12:21:27.804Z,45.19
2019-05-11T12:23:49.102Z,44.26
2019-05-11T12:26:12.001Z,43.31
2019-05-11T12:28:33.286Z,42.55
2019-05-11T12:30:58.572Z,42.60
2019-05-11T12:33:20.761Z,43.21
2019-05-11T12:35:42.505Z,43.35
2019-05-11T12:38:04.239Z,43.38
2019-05-11T12:40:28.159Z,43.26
2019-05-11T12:42:49.252Z,43.09
2019-05-11T12:45:11.245Z,42.95
2019-05-11T12:47:32.926Z,42.80
2019-05-11T12:49:54.661Z,42.60
2019-05-11T12:52:18.275Z,42.60
2019-05-11T12:54:39.536Z,42.57
2019-05-11T12:57:01.526Z,42.41
2019-05-11T12:59:22.678Z,42.34
2019-05-11T13:01:44.791Z,42.09
2019-05-11T13:04:08.832Z,42.16
2019-05-11T13:06:30.199Z,42.05
2019-05-11T13:08:51.711Z,42.11
2019-05-11T13:11:13.713Z,42.05
2019-05-11T13:13:35.041Z,42.04
2019-05-11T13:15:58.563Z,41.98
2019-05-11T13:18:20.723Z,41.97
2019-05-11T13:20:42.005Z,41.91
2019-05-11T13:23:04.003Z,41.96
2019-05-11T13:25:28.112Z,41.95
2019-05-11T13:27:49.435Z,41.94
2019-05-11T13:30:11.347Z,41.96
2019-05-11T13:32:33.629Z,41.88
2019-05-11T13:34:55.455Z,41.88
2019-05-11T13:37:18.754Z,41.91
2019-05-11T13:39:41.275Z,41.76
2019-05-11T13:42:03.223Z,41.79
2019-05-11T13:44:24.689Z,41.79
2019-05-11T13:46:49.063Z,41.71
2019-05-11T13:49:10.940Z,41.62
2019-05-11T13:51:33.865Z,41.71
2019-05-11T13:53:55.439Z,41.56
2019-05-11T13:56:18.941Z,41.64
2019-05-11T13:58:39.888Z,41.77
2019-05-11T14:01:01.703Z,41.80
2019-05-11T14:03:23.715Z,41.82
2019-05-11T14:05:47.902Z,41.69
2019-05-11T14:08:08.970Z,41.99
2019-05-11T14:10:30.531Z,41.95
2019-05-11T14:12:52.098Z,41.90
2019-05-11T14:15:14.828Z,41.80
2019-05-11T14:17:38.032Z,41.81
2019-05-11T14:19:59.870Z,41.82
2019-05-11T14:22:21.800Z,41.87
2019-05-11T14:24:43.972Z,41.74
2019-05-11T14:27:05.490Z,41.99
2019-05-11T14:29:28.547Z,40.47
2019-05-11T14:31:50.737Z,41.10
2019-05-11T14:34:12.560Z,41.26
2019-05-11T14:36:34.669Z,41.17
2019-05-11T14:38:57.685Z,41.20
2019-05-11T14:41:18.762Z,41.08
2019-05-11T14:43:40.131Z,40.99
2019-05-11T14:46:02.070Z,40.92
2019-05-11T14:48:27.076Z,40.90
2019-05-11T14:50:48.950Z,40.96
2019-05-11T14:53:10.044Z,40.47
2019-05-11T14:55:32.976Z,38.53
2019-05-11T14:57:54.748Z,37.82
2019-05-11T15:00:18.542Z,37.44
2019-05-11T15:02:39.851Z,37.53
2019-05-11T15:05:01.526Z,37.39
2019-05-11T15:07:22.657Z,37.35
2019-05-11T15:09:44.956Z,37.25
2019-05-11T15:12:08.611Z,36.90
2019-05-11T15:14:29.403Z,36.81
2019-05-11T15:16:50.830Z,36.97
2019-05-11T15:19:12.889Z,36.57
2019-05-11T15:21:33.970Z,36.29
2019-05-11T15:23:57.967Z,36.30
2019-05-11T15:26:19.524Z,36.95
2019-05-11T15:28:41.395Z,37.33
2019-05-11T15:31:03.138Z,37.69
2019-05-11T15:33:24.338Z,38.21
2019-05-11T15:35:47.832Z,38.39
2019-05-11T15:38:10.336Z,38.55
2019-05-11T15:40:32.452Z,38.74
2019-05-11T15:42:54.861Z,39.01
2019-05-11T15:45:18.595Z,39.28
2019-05-11T15:47:39.711Z,39.40
2019-05-11T15:50:00.815Z,39.51
2019-05-11T15:52:22.882Z,39.68
2019-05-11T15:54:44.914Z,39.70
2019-05-11T15:57:08.395Z,39.77
2019-05-11T15:59:30.826Z,39.93
2019-05-11T16:01:54.566Z,40.04
2019-05-11T16:04:17.964Z,39.91
2019-05-11T16:06:39.057Z,40.19
2019-05-11T16:09:01.377Z,40.42
2019-05-11T16:11:23.337Z,40.44
2019-05-11T16:13:45.531Z,40.48
2019-05-11T16:16:07.309Z,40.47
2019-05-11T16:18:28.956Z,40.57
2019-05-11T16:20:50.538Z,40.62
2019-05-11T16:23:13.040Z,40.82
2019-05-11T16:25:34.838Z,40.94
2019-05-11T16:27:56.375Z,40.98
2019-05-11T16:30:21.388Z,41.00
2019-05-11T16:32:41.030Z,41.29
2019-05-11T16:35:03.584Z,41.18
2019-05-11T16:37:24.944Z,41.47
2019-05-11T16:39:49.475Z,41.47
2019-05-11T16:42:10.242Z,41.71
2019-05-11T16:44:31.926Z,41.71
2019-05-11T16:46:54.091Z,41.72
2019-05-11T16:49:26.227Z,41.71
2019-05-11T16:51:39.510Z,41.81
2019-05-11T16:54:01.387Z,40.50
2019-05-11T16:56:23.137Z,41.54
2019-05-11T16:58:44.898Z,41.75
2019-05-11T17:01:08.412Z,42.32
2019-05-11T17:03:29.790Z,42.54
2019-05-11T17:05:51.852Z,42.74
2019-05-11T17:08:13.727Z,42.96
2019-05-11T17:10:35.313Z,43.04
2019-05-11T17:12:58.092Z,43.41
2019-05-11T17:15:33.373Z,43.24
2019-05-11T17:17:55.245Z,42.57
2019-05-11T17:20:18.690Z,42.59
2019-05-11T17:22:39.662Z,42.68
2019-05-11T17:25:01.394Z,42.60
2019-05-11T17:27:23.060Z,42.56
2019-05-11T17:29:48.796Z,42.55
2019-05-11T17:32:09.140Z,42.57
2019-05-11T17:34:31.160Z,42.64
2019-05-11T17:36:52.085Z,42.51
2019-05-11T17:39:14.713Z,42.50
2019-05-11T17:41:38.761Z,42.46
2019-05-11T17:44:01.197Z,42.50
2019-05-11T17:46:22.287Z,42.58
2019-05-11T17:48:44.446Z,42.65
2019-05-11T17:51:20.576Z,42.61
2019-05-11T17:53:30.996Z,42.61
2019-05-11T17:55:53.429Z,42.60
2019-05-11T17:58:15.228Z,42.59
2019-05-11T18:00:39.236Z,42.60
2019-05-11T18:03:00.181Z,42.60
2019-05-11T18:05:21.888Z,42.62
2019-05-11T18:07:44.703Z,42.62
2019-05-11T18:10:08.142Z,42.65
2019-05-11T18:12:30.670Z,42.68
2019-05-11T18:14:51.858Z,42.69
2019-05-11T18:17:14.115Z,42.70
2019-05-11T18:19:35.525Z,42.74
2019-05-11T18:21:57.784Z,42.78
2019-05-11T18:24:19.583Z,42.82
2019-05-11T18:26:40.886Z,42.87
2019-05-11T18:29:02.904Z,42.78
2019-05-11T18:31:25.026Z,42.63
2019-05-11T18:33:48.749Z,42.71
2019-05-11T18:36:13.643Z,42.57
2019-05-11T18:38:35.570Z,42.78
2019-05-11T18:40:58.049Z,42.79
2019-05-11T18:43:20.305Z,42.65
2019-05-11T18:45:44.268Z,42.77
2019-05-11T18:48:07.873Z,42.91
2019-05-11T18:50:30.866Z,42.97
2019-05-11T18:52:52.372Z,43.58
2019-05-11T18:55:13.888Z,43.08
2019-05-11T18:57:38.201Z,44.37
2019-05-11T18:59:58.821Z,44.16
2019-05-11T19:02:21.375Z,43.54
2019-05-11T19:04:43.541Z,44.55
2019-05-11T19:07:14.181Z,43.57
2019-05-11T19:09:28.429Z,42.78
2019-05-11T19:11:50.452Z,42.59
2019-05-11T19:14:11.915Z,42.82
2019-05-11T19:16:33.860Z,42.34
2019-05-11T19:18:55.844Z,42.28
2019-05-11T19:21:18.022Z,42.44
2019-05-11T19:23:39.663Z,42.41
2019-05-11T19:26:01.818Z,42.45
2019-05-11T19:28:23.711Z,43.09
2019-05-11T19:30:45.851Z,42.72
2019-05-11T19:33:10.753Z,43.05
2019-05-11T19:35:30.187Z,42.42
2019-05-11T19:37:52.274Z,42.79
2019-05-11T19:40:14.184Z,42.33
2019-05-11T19:42:37.907Z,41.81
2019-05-11T19:44:59.708Z,42.36
2019-05-11T19:47:24.762Z,42.39
2019-05-11T19:49:47.922Z,42.50
2019-05-11T19:52:09.559Z,41.20
2019-05-11T19:54:30.828Z,41.69
2019-05-11T19:56:52.819Z,41.61
2019-05-11T19:59:14.773Z,41.90
2019-05-11T20:01:37.818Z,41.91
2019-05-11T20:03:59.403Z,42.02
2019-05-11T20:06:21.718Z,42.05
2019-05-11T20:08:43.282Z,42.06
2019-05-11T20:11:05.024Z,42.19
2019-05-11T20:13:28.386Z,42.29
2019-05-11T20:15:50.209Z,42.35
2019-05-11T20:18:12.402Z,42.47
2019-05-11T20:20:34.839Z,42.49
2019-05-11T20:22:58.450Z,42.55
2019-05-11T20:25:20.015Z,42.65
2019-05-11T20:27:41.594Z,42.55
2019-05-11T20:30:03.317Z,42.82
2019-05-11T20:32:24.387Z,42.79
2019-05-11T20:34:48.308Z,42.75
2019-05-11T20:37:11.521Z,42.70
2019-05-11T20:39:33.189Z,42.63
2019-05-11T20:41:55.535Z,42.58
2019-05-11T20:44:19.311Z,42.53
2019-05-11T20:46:40.883Z,42.52
2019-05-11T20:49:01.981Z,42.54
2019-05-11T20:51:34.186Z,42.57
2019-05-11T20:53:48.932Z,42.59
2019-05-11T20:56:10.290Z,42.62
2019-05-11T20:58:31.891Z,42.66
2019-05-11T21:00:53.853Z,42.73
2019-05-11T21:03:15.744Z,42.82
2019-05-11T21:05:38.267Z,42.90
2019-05-11T21:08:00.419Z,42.93
2019-05-11T21:10:22.193Z,42.95
2019-05-11T21:12:44.121Z,42.99
2019-05-11T21:15:06.001Z,43.02
2019-05-11T21:17:28.073Z,43.02
2019-05-11T21:19:49.569Z,43.06
2019-05-11T21:22:11.533Z,43.08
2019-05-11T21:24:33.408Z,43.09
2019-05-11T21:26:55.328Z,43.16
2019-05-11T21:29:18.686Z,43.16
2019-05-11T21:31:40.721Z,43.20
2019-05-11T21:34:02.623Z,43.19
2019-05-11T21:36:24.605Z,43.25
2019-05-11T21:38:48.197Z,43.27
2019-05-11T21:41:09.294Z,43.26
2019-05-11T21:43:30.945Z,43.30
2019-05-11T21:45:53.512Z,43.33
2019-05-11T21:48:15.357Z,43.36
2019-05-11T21:50:37.011Z,43.38
2019-05-11T21:52:59.158Z,43.38
2019-05-11T21:55:21.617Z,43.39
2019-05-11T21:57:43.554Z,43.41
2019-05-11T22:00:04.949Z,43.44
2019-05-11T22:02:28.581Z,43.41
2019-05-11T22:04:49.483Z,43.45
2019-05-11T22:07:11.355Z,43.44
2019-05-11T22:09:32.879Z,43.45
2019-05-11T22:11:54.475Z,43.46
2019-05-11T22:14:16.427Z,43.46
2019-05-11T22:16:38.910Z,43.51
2019-05-11T22:19:01.489Z,43.51
2019-05-11T22:21:23.174Z,43.51
2019-05-11T22:23:47.460Z,43.49
2019-05-11T22:26:07.899Z,43.50
2019-05-11T22:28:29.949Z,43.50
2019-05-11T22:30:52.267Z,43.50
2019-05-11T22:33:13.197Z,43.49
2019-05-11T22:35:35.008Z,43.49
2019-05-11T22:37:57.778Z,43.46
2019-05-11T22:40:18.932Z,43.48
2019-05-11T22:42:41.015Z,43.46
2019-05-11T22:45:02.872Z,43.45
2019-05-11T22:47:24.622Z,43.43
2019-05-11T22:49:49.654Z,43.43
2019-05-11T22:52:09.956Z,43.43
2019-05-11T22:54:31.261Z,43.41
2019-05-11T22:56:52.419Z,43.42
2019-05-11T22:59:14.026Z,43.39
2019-05-11T23:01:37.812Z,43.38
2019-05-11T23:03:59.846Z,43.36
2019-05-11T23:06:22.129Z,43.36
2019-05-11T23:08:44.185Z,43.32
2019-05-11T23:11:10.305Z,43.33
2019-05-11T23:13:30.322Z,43.30
2019-05-11T23:15:52.169Z,43.30
2019-05-11T23:18:14.120Z,43.28
2019-05-11T23:20:35.750Z,43.27
2019-05-11T23:23:01.314Z,43.28
2019-05-11T23:25:21.038Z,43.25
2019-05-11T23:27:43.369Z,43.23
2019-05-11T23:30:04.873Z,43.21
2019-05-11T23:32:26.739Z,43.20
2019-05-11T23:34:49.047Z,43.19
2019-05-11T23:37:10.873Z,43.17
2019-05-11T23:39:32.465Z,43.17
2019-05-11T23:41:53.990Z,43.16
2019-05-11T23:44:17.964Z,43.16
2019-05-11T23:46:39.202Z,43.12
2019-05-11T23:49:01.442Z,43.12
2019-05-11T23:51:23.009Z,43.09
2019-05-11T23:53:47.516Z,43.08
2019-05-11T23:56:08.358Z,43.05
2019-05-11T23:58:30.461Z,43.06
